sensor_id;sensor_type;location;lat;lon;timestamp;pressure;altitude;pressure_sealevel;temperature;humidity
12213;BME280;6169;44.158;22.788;2023-02-22T00:03:32;100985.22;;;8.74;53.58
12213;BME280;6169;44.158;22.788;2023-02-22T00:08:36;100978.94;;;8.74;52.46
12213;BME280;6169;44.158;22.788;2023-02-22T00:13:39;100983.28;;;8.81;51.49
12213;BME280;6169;44.158;22.788;2023-02-22T00:18:44;100982.41;;;8.56;52.43
12213;BME280;6169;44.158;22.788;2023-02-22T00:23:48;100990.56;;;8.49;52.78
12213;BME280;6169;44.158;22.788;2023-02-22T00:28:54;100989.41;;;8.18;54.33
12213;BME280;6169;44.158;22.788;2023-02-22T00:33:56;100990.53;;;8.56;53.21
12213;BME280;6169;44.158;22.788;2023-02-22T00:39:01;100987.09;;;8.29;53.85
12213;BME280;6169;44.158;22.788;2023-02-22T00:44:04;100978.78;;;8.23;54.41
12213;BME280;6169;44.158;22.788;2023-02-22T00:49:06;100970.31;;;8.00;55.32
12213;BME280;6169;44.158;22.788;2023-02-22T00:54:10;100954.09;;;7.93;54.99
12213;BME280;6169;44.158;22.788;2023-02-22T00:59:14;100964.50;;;7.96;56.54
12213;BME280;6169;44.158;22.788;2023-02-22T01:04:16;100959.66;;;8.05;56.64
12213;BME280;6169;44.158;22.788;2023-02-22T01:09:20;100961.31;;;8.06;57.30
12213;BME280;6169;44.158;22.788;2023-02-22T01:14:24;100957.78;;;8.06;56.71
12213;BME280;6169;44.158;22.788;2023-02-22T01:19:27;100949.47;;;8.07;56.29
12213;BME280;6169;44.158;22.788;2023-02-22T01:24:33;100940.50;;;8.07;55.89
12213;BME280;6169;44.158;22.788;2023-02-22T01:29:35;100941.69;;;8.24;55.66
12213;BME280;6169;44.158;22.788;2023-02-22T01:34:38;100942.00;;;7.89;56.77
12213;BME280;6169;44.158;22.788;2023-02-22T01:39:42;100950.31;;;7.94;55.73
12213;BME280;6169;44.158;22.788;2023-02-22T01:44:45;100936.13;;;8.12;55.63
12213;BME280;6169;44.158;22.788;2023-02-22T01:49:48;100946.91;;;8.26;54.30
12213;BME280;6169;44.158;22.788;2023-02-22T01:54:55;100950.91;;;8.03;54.26
12213;BME280;6169;44.158;22.788;2023-02-22T02:00:04;100948.94;;;8.37;53.88
12213;BME280;6169;44.158;22.788;2023-02-22T02:05:09;100941.63;;;8.37;52.94
12213;BME280;6169;44.158;22.788;2023-02-22T02:10:14;100937.09;;;8.31;52.45
12213;BME280;6169;44.158;22.788;2023-02-22T02:15:19;100937.09;;;8.31;51.92
12213;BME280;6169;44.158;22.788;2023-02-22T02:20:27;100945.00;;;7.61;54.29
12213;BME280;6169;44.158;22.788;2023-02-22T02:36:40;100948.41;;;7.17;55.92
12213;BME280;6169;44.158;22.788;2023-02-22T02:41:48;100954.19;;;7.47;55.03
12213;BME280;6169;44.158;22.788;2023-02-22T02:46:55;100957.97;;;7.39;55.65
12213;BME280;6169;44.158;22.788;2023-02-22T02:52:03;100965.44;;;7.50;54.64
12213;BME280;6169;44.158;22.788;2023-02-22T02:57:06;100971.47;;;7.59;55.35
12213;BME280;6169;44.158;22.788;2023-02-22T03:02:18;100966.44;;;7.76;55.20
12213;BME280;6169;44.158;22.788;2023-02-22T03:07:43;100963.75;;;7.49;56.31
12213;BME280;6169;44.158;22.788;2023-02-22T03:12:53;100963.78;;;7.43;57.21
12213;BME280;6169;44.158;22.788;2023-02-22T03:18:04;100982.38;;;7.97;56.02
12213;BME280;6169;44.158;22.788;2023-02-22T03:23:15;100990.25;;;8.19;54.10
12213;BME280;6169;44.158;22.788;2023-02-22T03:28:24;100983.72;;;8.40;53.25
12213;BME280;6169;44.158;22.788;2023-02-22T03:33:32;100988.94;;;7.56;56.78
12213;BME280;6169;44.158;22.788;2023-02-22T03:38:40;100997.44;;;7.73;55.39
12213;BME280;6169;44.158;22.788;2023-02-22T03:43:47;100994.97;;;7.65;55.51
12213;BME280;6169;44.158;22.788;2023-02-22T03:48:54;100988.69;;;7.85;54.52
12213;BME280;6169;44.158;22.788;2023-02-22T03:54:02;100991.22;;;7.73;54.66
12213;BME280;6169;44.158;22.788;2023-02-22T03:59:06;101002.03;;;7.73;54.10
12213;BME280;6169;44.158;22.788;2023-02-22T04:04:10;101008.06;;;7.82;54.02
12213;BME280;6169;44.158;22.788;2023-02-22T04:09:14;101002.03;;;7.66;54.02
12213;BME280;6169;44.158;22.788;2023-02-22T04:14:16;101000.78;;;7.49;54.06
12213;BME280;6169;44.158;22.788;2023-02-22T04:19:18;101001.84;;;7.48;54.86
12213;BME280;6169;44.158;22.788;2023-02-22T04:24:23;101003.31;;;7.30;55.51
12213;BME280;6169;44.158;22.788;2023-02-22T04:29:25;100999.97;;;7.35;54.88
12213;BME280;6169;44.158;22.788;2023-02-22T04:34:27;100999.53;;;6.92;56.94
12213;BME280;6169;44.158;22.788;2023-02-22T04:39:31;100994.97;;;7.05;56.61
12213;BME280;6169;44.158;22.788;2023-02-22T04:44:34;100999.31;;;6.86;57.45
12213;BME280;6169;44.158;22.788;2023-02-22T04:49:36;101004.00;;;6.71;57.64
12213;BME280;6169;44.158;22.788;2023-02-22T04:54:40;101001.13;;;6.79;57.79
12213;BME280;6169;44.158;22.788;2023-02-22T04:59:42;100998.00;;;6.82;57.06
12213;BME280;6169;44.158;22.788;2023-02-22T05:04:45;101000.69;;;6.82;57.03
12213;BME280;6169;44.158;22.788;2023-02-22T05:09:49;101008.78;;;6.14;58.42
12213;BME280;6169;44.158;22.788;2023-02-22T05:14:52;101012.28;;;6.15;58.77
12213;BME280;6169;44.158;22.788;2023-02-22T05:19:55;101006.59;;;6.99;56.50
12213;BME280;6169;44.158;22.788;2023-02-22T05:24:59;101010.75;;;6.88;56.99
12213;BME280;6169;44.158;22.788;2023-02-22T05:30:01;101015.44;;;6.73;58.58
12213;BME280;6169;44.158;22.788;2023-02-22T05:35:04;101019.47;;;6.91;59.28
12213;BME280;6169;44.158;22.788;2023-02-22T05:40:10;101031.78;;;7.06;58.88
12213;BME280;6169;44.158;22.788;2023-02-22T05:45:15;101044.88;;;7.16;58.09
12213;BME280;6169;44.158;22.788;2023-02-22T05:50:18;101051.94;;;7.10;58.41
12213;BME280;6169;44.158;22.788;2023-02-22T05:55:23;101065.91;;;7.14;58.27
12213;BME280;6169;44.158;22.788;2023-02-22T06:00:27;101063.16;;;7.07;58.96
12213;BME280;6169;44.158;22.788;2023-02-22T06:05:29;101069.88;;;7.58;57.54
12213;BME280;6169;44.158;22.788;2023-02-22T06:10:33;101072.19;;;7.74;57.32
12213;BME280;6169;44.158;22.788;2023-02-22T06:15:36;101077.19;;;7.71;58.63
12213;BME280;6169;44.158;22.788;2023-02-22T06:20:38;101077.75;;;8.13;57.73
12213;BME280;6169;44.158;22.788;2023-02-22T06:25:42;101078.81;;;7.92;59.67
12213;BME280;6169;44.158;22.788;2023-02-22T06:30:44;101086.84;;;8.58;57.59
12213;BME280;6169;44.158;22.788;2023-02-22T06:35:47;101083.03;;;9.11;56.19
12213;BME280;6169;44.158;22.788;2023-02-22T06:40:51;101098.50;;;9.42;55.48
12213;BME280;6169;44.158;22.788;2023-02-22T06:45:54;101108.00;;;9.58;55.20
12213;BME280;6169;44.158;22.788;2023-02-22T06:50:57;101110.22;;;9.68;54.84
12213;BME280;6169;44.158;22.788;2023-02-22T06:56:01;101120.81;;;9.76;55.25
12213;BME280;6169;44.158;22.788;2023-02-22T07:01:03;101121.84;;;9.43;55.84
12213;BME280;6169;44.158;22.788;2023-02-22T07:06:07;101105.00;;;9.66;55.14
12213;BME280;6169;44.158;22.788;2023-02-22T07:11:11;101114.78;;;10.17;53.90
12213;BME280;6169;44.158;22.788;2023-02-22T07:16:14;101112.41;;;10.28;53.66
12213;BME280;6169;44.158;22.788;2023-02-22T07:21:16;101106.69;;;10.54;53.54
12213;BME280;6169;44.158;22.788;2023-02-22T07:26:21;101099.97;;;10.75;52.29
12213;BME280;6169;44.158;22.788;2023-02-22T07:31:24;101104.59;;;11.05;50.97
12213;BME280;6169;44.158;22.788;2023-02-22T07:36:26;101106.25;;;10.76;50.93
12213;BME280;6169;44.158;22.788;2023-02-22T07:41:30;101107.31;;;11.05;50.58
12213;BME280;6169;44.158;22.788;2023-02-22T07:46:32;101115.25;;;11.06;50.05
12213;BME280;6169;44.158;22.788;2023-02-22T07:51:35;101111.50;;;11.49;48.72
12213;BME280;6169;44.158;22.788;2023-02-22T07:56:43;101103.44;;;11.43;49.34
12213;BME280;6169;44.158;22.788;2023-02-22T08:01:48;101098.28;;;11.65;48.79
12213;BME280;6169;44.158;22.788;2023-02-22T08:06:50;101088.84;;;12.14;48.60
12213;BME280;6169;44.158;22.788;2023-02-22T08:11:54;101096.28;;;12.42;47.78
12213;BME280;6169;44.158;22.788;2023-02-22T08:16:56;101090.97;;;12.36;47.74
12213;BME280;6169;44.158;22.788;2023-02-22T08:21:59;101092.66;;;12.77;48.06
12213;BME280;6169;44.158;22.788;2023-02-22T08:27:03;101081.88;;;12.82;45.77
12213;BME280;6169;44.158;22.788;2023-02-22T08:32:05;101080.31;;;12.86;46.99
12213;BME280;6169;44.158;22.788;2023-02-22T08:37:08;101070.22;;;13.15;45.67
12213;BME280;6169;44.158;22.788;2023-02-22T08:42:11;101084.91;;;13.43;44.89
12213;BME280;6169;44.158;22.788;2023-02-22T08:47:14;101083.41;;;13.35;44.83
12213;BME280;6169;44.158;22.788;2023-02-22T08:52:16;101080.16;;;13.84;43.35
12213;BME280;6169;44.158;22.788;2023-02-22T08:57:20;101091.91;;;13.85;42.79
12213;BME280;6169;44.158;22.788;2023-02-22T09:02:22;101086.09;;;14.15;43.33
12213;BME280;6169;44.158;22.788;2023-02-22T09:07:25;101081.53;;;14.20;42.90
12213;BME280;6169;44.158;22.788;2023-02-22T09:12:29;101087.63;;;14.49;42.61
12213;BME280;6169;44.158;22.788;2023-02-22T09:17:32;101088.47;;;14.50;43.00
12213;BME280;6169;44.158;22.788;2023-02-22T09:22:37;101088.47;;;14.50;43.11
12213;BME280;6169;44.158;22.788;2023-02-22T09:27:41;101081.13;;;14.34;42.71
12213;BME280;6169;44.158;22.788;2023-02-22T09:32:43;101081.34;;;14.93;42.20
12213;BME280;6169;44.158;22.788;2023-02-22T09:37:45;101079.63;;;14.65;40.61
12213;BME280;6169;44.158;22.788;2023-02-22T09:42:55;101068.00;;;15.02;40.64
12213;BME280;6169;44.158;22.788;2023-02-22T09:48:02;101060.38;;;15.04;39.89
12213;BME280;6169;44.158;22.788;2023-02-22T09:53:18;101058.47;;;15.58;39.53
12213;BME280;6169;44.158;22.788;2023-02-22T09:58:34;101054.72;;;15.10;38.45
12213;BME280;6169;44.158;22.788;2023-02-22T10:03:45;101043.91;;;15.26;37.74
12213;BME280;6169;44.158;22.788;2023-02-22T10:08:51;101047.03;;;15.40;37.64
12213;BME280;6169;44.158;22.788;2023-02-22T10:14:02;101039.81;;;15.60;36.57
12213;BME280;6169;44.158;22.788;2023-02-22T10:19:19;101031.63;;;15.66;36.50
12213;BME280;6169;44.158;22.788;2023-02-22T10:24:37;101029.69;;;15.98;35.68
12213;BME280;6169;44.158;22.788;2023-02-22T10:29:46;101008.22;;;16.38;35.03
12213;BME280;6169;44.158;22.788;2023-02-22T10:34:50;101009.16;;;15.64;35.71
12213;BME280;6169;44.158;22.788;2023-02-22T10:39:59;101003.09;;;16.04;35.31
12213;BME280;6169;44.158;22.788;2023-02-22T10:45:19;100985.56;;;16.10;34.67
12213;BME280;6169;44.158;22.788;2023-02-22T10:50:23;100986.13;;;16.85;33.32
12213;BME280;6169;44.158;22.788;2023-02-22T10:55:26;100981.44;;;16.86;33.69
12213;BME280;6169;44.158;22.788;2023-02-22T11:00:31;100974.88;;;17.02;32.97
12213;BME280;6169;44.158;22.788;2023-02-22T11:05:38;100957.03;;;16.94;33.42
12213;BME280;6169;44.158;22.788;2023-02-22T11:10:42;100901.56;;;17.28;32.19
12213;BME280;6169;44.158;22.788;2023-02-22T11:15:45;100960.38;;;17.22;32.18
12213;BME280;6169;44.158;22.788;2023-02-22T11:20:48;100955.13;;;17.21;32.51
12213;BME280;6169;44.158;22.788;2023-02-22T11:26:00;100949.03;;;17.54;32.59
12213;BME280;6169;44.158;22.788;2023-02-22T11:31:16;100944.41;;;17.14;32.46
12213;BME280;6169;44.158;22.788;2023-02-22T11:36:31;100930.94;;;17.38;32.11
12213;BME280;6169;44.158;22.788;2023-02-22T11:41:37;100927.53;;;17.87;31.09
12213;BME280;6169;44.158;22.788;2023-02-22T11:46:41;100914.91;;;17.76;31.41
12213;BME280;6169;44.158;22.788;2023-02-22T11:51:55;100909.84;;;18.09;30.25
12213;BME280;6169;44.158;22.788;2023-02-22T11:57:10;100902.72;;;18.02;30.62
12213;BME280;6169;44.158;22.788;2023-02-22T12:02:30;100906.25;;;18.58;29.46
12213;BME280;6169;44.158;22.788;2023-02-22T12:07:50;100901.41;;;18.39;29.71
12213;BME280;6169;44.158;22.788;2023-02-22T12:13:14;100886.75;;;18.54;29.72
12213;BME280;6169;44.158;22.788;2023-02-22T12:18:30;100883.66;;;18.61;29.13
12213;BME280;6169;44.158;22.788;2023-02-22T12:23:40;100879.19;;;18.31;29.27
12213;BME280;6169;44.158;22.788;2023-02-22T12:28:50;100856.59;;;18.73;28.66
12213;BME280;6169;44.158;22.788;2023-02-22T12:34:05;100859.94;;;17.71;30.16
12213;BME280;6169;44.158;22.788;2023-02-22T12:39:26;100864.50;;;18.45;29.28
12213;BME280;6169;44.158;22.788;2023-02-22T12:44:34;100871.34;;;17.18;30.56
12213;BME280;6169;44.158;22.788;2023-02-22T12:49:42;100756.34;;;16.50;31.05
12213;BME280;6169;44.158;22.788;2023-02-22T12:54:50;100855.09;;;17.37;31.20
12213;BME280;6169;44.158;22.788;2023-02-22T13:00:02;100854.28;;;17.42;30.65
12213;BME280;6169;44.158;22.788;2023-02-22T13:05:13;100851.94;;;19.03;29.13
12213;BME280;6169;44.158;22.788;2023-02-22T13:10:32;100852.38;;;18.86;29.01
12213;BME280;6169;44.158;22.788;2023-02-22T13:15:41;100853.19;;;19.45;28.73
12213;BME280;6169;44.158;22.788;2023-02-22T13:20:48;100842.91;;;18.23;29.66
12213;BME280;6169;44.158;22.788;2023-02-22T13:25:57;100857.59;;;19.41;28.62
12213;BME280;6169;44.158;22.788;2023-02-22T13:31:20;100845.47;;;18.10;30.41
12213;BME280;6169;44.158;22.788;2023-02-22T13:36:44;100845.06;;;18.66;29.76
12213;BME280;6169;44.158;22.788;2023-02-22T13:42:19;100840.47;;;19.20;29.21
12213;BME280;6169;44.158;22.788;2023-02-22T13:47:51;100850.19;;;19.12;28.93
12213;BME280;6169;44.158;22.788;2023-02-22T13:53:04;100843.81;;;18.87;29.18
12213;BME280;6169;44.158;22.788;2023-02-22T13:58:10;100844.19;;;18.36;29.62
12213;BME280;6169;44.158;22.788;2023-02-22T14:03:34;100835.16;;;18.31;29.83
12213;BME280;6169;44.158;22.788;2023-02-22T14:08:45;100849.66;;;18.81;29.23
12213;BME280;6169;44.158;22.788;2023-02-22T14:14:08;100840.66;;;18.65;29.76
12213;BME280;6169;44.158;22.788;2023-02-22T14:19:16;100846.91;;;18.41;29.57
12213;BME280;6169;44.158;22.788;2023-02-22T14:24:24;100846.34;;;18.44;29.99
12213;BME280;6169;44.158;22.788;2023-02-22T14:29:26;100857.09;;;17.96;30.29
12213;BME280;6169;44.158;22.788;2023-02-22T14:34:43;100858.13;;;18.50;29.41
12213;BME280;6169;44.158;22.788;2023-02-22T14:39:51;100859.66;;;18.32;30.25
12213;BME280;6169;44.158;22.788;2023-02-22T14:44:58;100859.59;;;17.88;30.63
12213;BME280;6169;44.158;22.788;2023-02-22T14:50:05;100857.28;;;17.35;30.71
12213;BME280;6169;44.158;22.788;2023-02-22T14:55:17;100867.16;;;17.46;30.99
12213;BME280;6169;44.158;22.788;2023-02-22T15:00:23;100849.75;;;17.66;30.75
12213;BME280;6169;44.158;22.788;2023-02-22T15:05:35;100854.28;;;17.36;31.31
12213;BME280;6169;44.158;22.788;2023-02-22T15:10:42;100859.50;;;17.07;31.38
12213;BME280;6169;44.158;22.788;2023-02-22T15:15:46;100847.13;;;17.35;31.04
12213;BME280;6169;44.158;22.788;2023-02-22T15:20:50;100858.66;;;17.37;31.60
12213;BME280;6169;44.158;22.788;2023-02-22T15:25:57;100857.34;;;16.84;31.99
12213;BME280;6169;44.158;22.788;2023-02-22T15:31:24;100855.72;;;16.88;32.51
12213;BME280;6169;44.158;22.788;2023-02-22T15:36:28;100861.44;;;16.56;32.69
12213;BME280;6169;44.158;22.788;2023-02-22T15:41:33;100859.53;;;16.41;33.00
12213;BME280;6169;44.158;22.788;2023-02-22T15:46:37;100862.81;;;16.58;33.13
12213;BME280;6169;44.158;22.788;2023-02-22T15:51:41;100872.06;;;16.21;33.57
12213;BME280;6169;44.158;22.788;2023-02-22T15:56:51;100869.78;;;15.93;34.14
12213;BME280;6169;44.158;22.788;2023-02-22T16:01:57;100864.94;;;16.25;33.82
12213;BME280;6169;44.158;22.788;2023-02-22T16:07:05;100872.41;;;15.62;34.91
12213;BME280;6169;44.158;22.788;2023-02-22T16:12:26;100858.16;;;15.65;34.98
12213;BME280;6169;44.158;22.788;2023-02-22T16:17:33;100873.19;;;15.57;35.37
12213;BME280;6169;44.158;22.788;2023-02-22T16:22:37;100869.72;;;15.25;35.75
12213;BME280;6169;44.158;22.788;2023-02-22T16:27:42;100884.19;;;15.20;35.56
12213;BME280;6169;44.158;22.788;2023-02-22T16:32:48;100889.09;;;15.18;35.48
12213;BME280;6169;44.158;22.788;2023-02-22T16:37:53;100900.53;;;15.47;34.89
12213;BME280;6169;44.158;22.788;2023-02-22T16:42:58;100911.28;;;15.54;34.66
12213;BME280;6169;44.158;22.788;2023-02-22T16:48:11;100906.47;;;15.34;34.74
12213;BME280;6169;44.158;22.788;2023-02-22T16:53:16;100909.22;;;15.02;35.54
12213;BME280;6169;44.158;22.788;2023-02-22T16:58:21;100910.84;;;14.65;36.05
12213;BME280;6169;44.158;22.788;2023-02-22T17:03:25;100919.09;;;14.70;36.63
12213;BME280;6169;44.158;22.788;2023-02-22T17:08:27;100911.16;;;14.69;36.60
12213;BME280;6169;44.158;22.788;2023-02-22T17:13:31;100925.53;;;14.86;36.55
12213;BME280;6169;44.158;22.788;2023-02-22T17:18:35;100932.84;;;15.13;36.32
12213;BME280;6169;44.158;22.788;2023-02-22T17:23:38;100934.97;;;14.46;37.22
12213;BME280;6169;44.158;22.788;2023-02-22T17:28:42;100932.59;;;14.55;37.59
12213;BME280;6169;44.158;22.788;2023-02-22T17:33:45;100948.16;;;13.67;38.97
12213;BME280;6169;44.158;22.788;2023-02-22T17:38:47;100933.88;;;14.47;37.92
12213;BME280;6169;44.158;22.788;2023-02-22T17:43:51;100939.16;;;13.49;39.44
12213;BME280;6169;44.158;22.788;2023-02-22T17:48:57;100939.75;;;13.51;39.08
12213;BME280;6169;44.158;22.788;2023-02-22T17:54:00;100933.47;;;11.86;43.02
12213;BME280;6169;44.158;22.788;2023-02-22T17:59:04;100931.47;;;11.46;44.00
12213;BME280;6169;44.158;22.788;2023-02-22T18:04:09;100923.28;;;12.50;41.84
12213;BME280;6169;44.158;22.788;2023-02-22T18:09:11;100923.06;;;12.97;40.63
12213;BME280;6169;44.158;22.788;2023-02-22T18:14:19;100925.19;;;12.21;41.72
12213;BME280;6169;44.158;22.788;2023-02-22T18:19:23;100922.56;;;11.86;43.16
12213;BME280;6169;44.158;22.788;2023-02-22T18:24:26;100916.44;;;12.47;41.99
12213;BME280;6169;44.158;22.788;2023-02-22T18:29:31;100927.84;;;12.90;40.83
12213;BME280;6169;44.158;22.788;2023-02-22T18:34:34;100924.28;;;12.89;41.12
12213;BME280;6169;44.158;22.788;2023-02-22T18:39:37;100931.66;;;13.23;40.13
12213;BME280;6169;44.158;22.788;2023-02-22T18:44:44;100919.09;;;12.88;40.89
12213;BME280;6169;44.158;22.788;2023-02-22T18:49:48;100926.03;;;12.50;41.15
12213;BME280;6169;44.158;22.788;2023-02-22T18:54:51;100915.88;;;12.34;41.92
12213;BME280;6169;44.158;22.788;2023-02-22T18:59:56;100928.38;;;12.75;41.64
12213;BME280;6169;44.158;22.788;2023-02-22T19:04:58;100933.97;;;12.80;41.06
12213;BME280;6169;44.158;22.788;2023-02-22T19:10:02;100931.69;;;11.68;43.51
12213;BME280;6169;44.158;22.788;2023-02-22T19:15:07;100938.59;;;12.80;41.97
12213;BME280;6169;44.158;22.788;2023-02-22T19:20:11;100927.50;;;12.41;43.05
12213;BME280;6169;44.158;22.788;2023-02-22T19:25:14;100918.63;;;11.93;43.72
12213;BME280;6169;44.158;22.788;2023-02-22T19:30:18;100774.00;;;11.54;42.56
12213;BME280;6169;44.158;22.788;2023-02-22T19:35:21;100916.75;;;12.22;43.53
12213;BME280;6169;44.158;22.788;2023-02-22T19:40:30;100922.16;;;12.46;42.91
12213;BME280;6169;44.158;22.788;2023-02-22T19:45:38;100917.84;;;12.50;42.69
12213;BME280;6169;44.158;22.788;2023-02-22T19:50:41;100912.34;;;12.05;43.40
12213;BME280;6169;44.158;22.788;2023-02-22T19:55:48;100917.22;;;12.60;42.31
12213;BME280;6169;44.158;22.788;2023-02-22T20:00:52;100930.78;;;12.72;42.26
12213;BME280;6169;44.158;22.788;2023-02-22T20:05:56;100929.97;;;12.42;42.44
12213;BME280;6169;44.158;22.788;2023-02-22T20:10:58;100931.69;;;12.60;42.49
12213;BME280;6169;44.158;22.788;2023-02-22T20:16:02;100929.25;;;12.18;43.10
12213;BME280;6169;44.158;22.788;2023-02-22T20:21:06;100934.03;;;11.99;43.79
12213;BME280;6169;44.158;22.788;2023-02-22T20:26:13;100936.16;;;12.09;43.70
12213;BME280;6169;44.158;22.788;2023-02-22T20:31:19;100941.75;;;11.91;43.83
12213;BME280;6169;44.158;22.788;2023-02-22T20:36:23;100938.53;;;11.94;43.50
12213;BME280;6169;44.158;22.788;2023-02-22T20:41:27;100939.34;;;10.88;45.63
12213;BME280;6169;44.158;22.788;2023-02-22T20:46:32;100931.97;;;10.77;46.57
12213;BME280;6169;44.158;22.788;2023-02-22T20:51:36;100934.22;;;10.80;47.06
12213;BME280;6169;44.158;22.788;2023-02-22T20:56:41;100929.72;;;10.74;46.24
12213;BME280;6169;44.158;22.788;2023-02-22T21:01:45;100931.13;;;10.77;46.75
12213;BME280;6169;44.158;22.788;2023-02-22T21:06:49;100936.94;;;10.50;47.18
12213;BME280;6169;44.158;22.788;2023-02-22T21:11:51;100928.72;;;10.38;47.40
12213;BME280;6169;44.158;22.788;2023-02-22T21:16:55;100935.84;;;10.51;47.11
12213;BME280;6169;44.158;22.788;2023-02-22T21:21:59;100948.69;;;10.14;47.82
12213;BME280;6169;44.158;22.788;2023-02-22T21:27:06;100940.94;;;9.99;47.62
12213;BME280;6169;44.158;22.788;2023-02-22T21:32:12;100909.84;;;10.13;46.98
12213;BME280;6169;44.158;22.788;2023-02-22T21:37:14;100935.81;;;11.00;44.93
12213;BME280;6169;44.158;22.788;2023-02-22T21:42:17;100940.06;;;10.35;46.73
12213;BME280;6169;44.158;22.788;2023-02-22T21:47:21;100944.09;;;10.63;45.82
12213;BME280;6169;44.158;22.788;2023-02-22T21:52:24;100947.34;;;10.83;45.02
12213;BME280;6169;44.158;22.788;2023-02-22T21:57:28;100942.28;;;10.87;44.72
12213;BME280;6169;44.158;22.788;2023-02-22T22:02:32;100948.16;;;10.54;44.36
12213;BME280;6169;44.158;22.788;2023-02-22T22:07:37;100956.00;;;10.32;44.89
12213;BME280;6169;44.158;22.788;2023-02-22T22:12:41;100953.97;;;9.72;47.53
12213;BME280;6169;44.158;22.788;2023-02-22T22:17:47;100964.00;;;9.53;47.15
12213;BME280;6169;44.158;22.788;2023-02-22T22:22:49;100962.81;;;9.17;47.98
12213;BME280;6169;44.158;22.788;2023-02-22T22:27:51;100967.41;;;8.85;48.05
12213;BME280;6169;44.158;22.788;2023-02-22T22:32:55;100964.25;;;8.56;48.93
12213;BME280;6169;44.158;22.788;2023-02-22T22:37:58;100971.91;;;8.21;51.93
12213;BME280;6169;44.158;22.788;2023-02-22T22:43:00;100971.88;;;9.04;48.98
12213;BME280;6169;44.158;22.788;2023-02-22T22:48:07;100976.13;;;9.44;48.14
12213;BME280;6169;44.158;22.788;2023-02-22T22:53:14;100980.84;;;10.35;45.42
12213;BME280;6169;44.158;22.788;2023-02-22T22:58:17;100995.00;;;9.07;49.68
12213;BME280;6169;44.158;22.788;2023-02-22T23:03:21;100995.50;;;8.97;49.58
12213;BME280;6169;44.158;22.788;2023-02-22T23:08:24;100993.00;;;9.52;48.46
12213;BME280;6169;44.158;22.788;2023-02-22T23:13:28;100991.88;;;9.60;47.81
12213;BME280;6169;44.158;22.788;2023-02-22T23:18:32;100995.09;;;8.62;49.86
12213;BME280;6169;44.158;22.788;2023-02-22T23:23:36;100999.50;;;8.95;48.58
12213;BME280;6169;44.158;22.788;2023-02-22T23:28:39;101001.53;;;8.99;48.29
12213;BME280;6169;44.158;22.788;2023-02-22T23:33:45;101008.09;;;8.40;49.48
12213;BME280;6169;44.158;22.788;2023-02-22T23:38:49;101010.25;;;8.11;51.24
12213;BME280;6169;44.158;22.788;2023-02-22T23:43:51;101015.06;;;8.02;52.17
12213;BME280;6169;44.158;22.788;2023-02-22T23:48:55;101016.16;;;7.75;52.86
12213;BME280;6169;44.158;22.788;2023-02-22T23:54:01;101019.31;;;7.52;55.69
12213;BME280;6169;44.158;22.788;2023-02-22T23:59:04;101028.25;;;7.13;56.88
